createdAt,value
2019-05-15T00:05:51.946Z,12.87
2019-05-15T00:08:20.681Z,12.83
2019-05-15T00:10:49.402Z,12.79
2019-05-15T00:13:18.539Z,12.74
2019-05-15T00:15:48.142Z,12.69
2019-05-15T00:18:18.586Z,12.59
2019-05-15T00:20:49.646Z,12.67
2019-05-15T00:23:18.407Z,12.76
2019-05-15T00:25:48.786Z,12.77
2019-05-15T00:28:18.544Z,12.75
2019-05-15T00:30:48.155Z,12.88
2019-05-15T00:33:19.130Z,12.85
2019-05-15T00:35:48.540Z,12.79
2019-05-15T00:38:18.645Z,12.82
2019-05-15T00:40:49.579Z,12.89
2019-05-15T00:43:18.400Z,12.81
2019-05-15T00:45:48.818Z,12.83
2019-05-15T00:48:18.336Z,13.00
2019-05-15T00:50:48.588Z,13.08
2019-05-15T00:53:19.549Z,13.04
2019-05-15T00:55:48.644Z,13.13
2019-05-15T00:58:19.893Z,13.33
2019-05-15T01:00:49.134Z,13.44
2019-05-15T01:03:18.338Z,13.56
2019-05-15T01:05:48.051Z,13.60
2019-05-15T01:08:19.213Z,13.69
2019-05-15T01:10:48.891Z,13.76
2019-05-15T01:13:18.978Z,13.81
2019-05-15T01:15:48.951Z,13.81
2019-05-15T01:18:18.829Z,13.82
2019-05-15T01:20:49.306Z,13.79
2019-05-15T01:23:18.729Z,13.84
2019-05-15T01:25:48.244Z,13.90
2019-05-15T01:28:18.409Z,13.91
2019-05-15T01:30:48.687Z,13.96
2019-05-15T01:33:18.937Z,13.90
2019-05-15T01:35:48.747Z,13.84
2019-05-15T01:38:18.680Z,13.86
2019-05-15T01:40:48.543Z,13.74
2019-05-15T01:43:18.672Z,13.80
2019-05-15T01:45:48.369Z,13.88
2019-05-15T01:48:18.951Z,13.99
2019-05-15T01:50:49.312Z,14.09
2019-05-15T01:53:18.693Z,14.17
2019-05-15T01:55:48.327Z,14.19
2019-05-15T01:58:18.703Z,14.21
2019-05-15T02:00:48.336Z,14.23
2019-05-15T02:05:54.993Z,14.31
2019-05-15T02:08:23.825Z,14.33
2019-05-15T02:10:52.562Z,14.39
2019-05-15T02:13:21.294Z,14.36
2019-05-15T02:15:50.063Z,14.38
2019-05-15T02:18:19.329Z,14.42
2019-05-15T02:20:49.327Z,14.39
2019-05-15T02:23:18.926Z,14.35
2019-05-15T02:25:48.206Z,14.45
2019-05-15T02:28:18.395Z,14.47
2019-05-15T02:30:50.492Z,14.37
2019-05-15T02:33:18.954Z,14.24
2019-05-15T02:35:50.102Z,14.37
2019-05-15T02:38:19.986Z,14.23
2019-05-15T02:40:49.413Z,14.30
2019-05-15T02:43:19.188Z,14.42
2019-05-15T02:45:50.841Z,14.36
2019-05-15T02:48:19.923Z,14.49
2019-05-15T02:50:50.119Z,14.55
2019-05-15T02:53:19.186Z,14.53
2019-05-15T02:55:49.592Z,14.59
2019-05-15T02:58:21.143Z,14.65
2019-05-15T03:00:53.165Z,14.69
2019-05-15T03:03:20.646Z,14.66
2019-05-15T03:05:49.968Z,14.63
2019-05-15T03:08:19.549Z,14.67
2019-05-15T03:10:49.618Z,14.73
2019-05-15T03:13:18.950Z,14.67
2019-05-15T03:15:48.902Z,14.56
2019-05-15T03:18:19.409Z,14.57
2019-05-15T03:20:50.158Z,14.61
2019-05-15T03:23:19.987Z,14.71
2019-05-15T03:25:49.173Z,14.77
2019-05-15T03:28:19.099Z,14.88
2019-05-15T03:31:14.320Z,14.89
2019-05-15T03:33:27.117Z,14.97
2019-05-15T03:35:54.229Z,14.95
2019-05-15T03:38:19.706Z,14.99
2019-05-15T03:40:49.774Z,15.05
2019-05-15T03:43:18.937Z,15.03
2019-05-15T03:45:49.332Z,14.90
2019-05-15T03:48:19.699Z,14.90
2019-05-15T03:50:49.041Z,14.89
2019-05-15T03:53:19.248Z,14.84
2019-05-15T03:55:48.994Z,14.82
2019-05-15T03:58:21.437Z,14.82
2019-05-15T04:00:49.834Z,14.93
2019-05-15T04:03:20.170Z,15.02
2019-05-15T04:05:49.793Z,15.12
2019-05-15T04:08:19.442Z,15.18
2019-05-15T04:10:48.945Z,15.24
2019-05-15T04:13:19.658Z,15.30
2019-05-15T04:15:50.131Z,15.38
2019-05-15T04:18:20.035Z,15.42
2019-05-15T04:20:49.458Z,15.50
2019-05-15T04:23:23.474Z,15.53
2019-05-15T04:25:53.888Z,15.63
2019-05-15T04:28:23.295Z,15.68
2019-05-15T04:30:52.136Z,15.71
2019-05-15T04:33:20.845Z,15.71
2019-05-15T04:35:49.851Z,15.76
2019-05-15T04:38:19.602Z,15.76
2019-05-15T04:40:50.117Z,15.68
2019-05-15T04:43:19.528Z,15.73
2019-05-15T04:45:49.782Z,15.70
2019-05-15T04:48:19.956Z,15.77
2019-05-15T04:50:49.686Z,15.84
2019-05-15T04:53:19.267Z,15.86
2019-05-15T04:55:49.146Z,15.95
2019-05-15T04:58:20.744Z,15.98
2019-05-15T05:00:53.743Z,16.04
2019-05-15T05:03:22.541Z,16.08
2019-05-15T05:05:51.734Z,16.28
2019-05-15T05:08:21.024Z,16.44
2019-05-15T05:10:50.170Z,16.75
2019-05-15T05:13:19.738Z,16.83
2019-05-15T05:15:50.292Z,17.08
2019-05-15T05:18:19.569Z,17.30
2019-05-15T05:20:48.828Z,17.50
2019-05-15T05:23:19.266Z,17.73
2019-05-15T05:25:49.127Z,17.34
2019-05-15T05:28:18.381Z,17.47
2019-05-15T05:30:48.187Z,17.38
2019-05-15T05:33:18.422Z,17.64
2019-05-15T05:35:48.514Z,17.23
2019-05-15T05:38:19.282Z,17.96
2019-05-15T05:40:49.650Z,17.24
2019-05-15T05:43:19.050Z,17.69
2019-05-15T05:45:49.248Z,18.28
2019-05-15T05:48:18.843Z,18.79
2019-05-15T05:50:49.557Z,17.99
2019-05-15T05:53:20.846Z,17.98
2019-05-15T05:55:52.795Z,19.09
2019-05-15T05:58:19.863Z,19.37
2019-05-15T06:00:49.778Z,20.09
2019-05-15T06:03:19.635Z,20.27
2019-05-15T06:05:49.719Z,20.00
2019-05-15T06:08:19.484Z,20.02
2019-05-15T06:10:49.604Z,20.20
2019-05-15T06:13:18.847Z,20.46
2019-05-15T06:15:48.889Z,20.70
2019-05-15T06:18:19.471Z,20.95
2019-05-15T06:20:49.719Z,20.49
2019-05-15T06:23:23.186Z,20.91
2019-05-15T06:25:50.009Z,21.55
2019-05-15T06:28:20.152Z,21.97
2019-05-15T06:30:49.166Z,21.94
2019-05-15T06:33:18.698Z,22.06
2019-05-15T06:35:48.843Z,22.45
2019-05-15T06:38:19.608Z,22.47
2019-05-15T06:40:49.282Z,21.88
2019-05-15T06:43:19.138Z,21.74
2019-05-15T06:45:49.020Z,21.73
2019-05-15T06:48:18.444Z,21.85
2019-05-15T06:50:48.926Z,21.61
2019-05-15T06:53:19.293Z,21.63
2019-05-15T06:55:48.824Z,21.90
2019-05-15T06:58:19.208Z,22.31
2019-05-15T07:00:49.230Z,22.43
2019-05-15T07:03:25.172Z,22.51
2019-05-15T07:05:50.682Z,22.89
2019-05-15T07:08:19.565Z,22.89
2019-05-15T07:10:48.862Z,23.13
2019-05-15T07:13:18.213Z,23.36
2019-05-15T07:15:49.504Z,23.65
2019-05-15T07:18:19.915Z,23.40
2019-05-15T07:20:49.150Z,23.11
2019-05-15T07:23:18.913Z,22.84
2019-05-15T07:25:50.362Z,22.98
2019-05-15T07:28:19.378Z,23.08
2019-05-15T07:30:49.342Z,22.98
2019-05-15T07:33:34.247Z,22.72
2019-05-15T07:35:49.735Z,23.33
2019-05-15T07:38:18.810Z,23.81
2019-05-15T07:40:55.521Z,24.18
2019-05-15T07:48:35.223Z,24.50
2019-05-15T07:51:03.964Z,24.26
2019-05-15T07:53:32.742Z,23.82
2019-05-15T07:56:01.847Z,23.34
2019-05-15T07:58:30.736Z,23.43
2019-05-15T08:00:59.548Z,23.31
2019-05-15T08:03:29.244Z,21.54
2019-05-15T08:06:02.670Z,20.77
2019-05-15T08:08:29.135Z,20.65
2019-05-15T08:10:58.135Z,21.19
2019-05-15T08:13:28.899Z,20.54
2019-05-15T08:15:58.033Z,20.18
2019-05-15T08:18:28.572Z,20.04
2019-05-15T08:20:58.608Z,20.51
2019-05-15T08:23:28.412Z,21.17
2019-05-15T08:25:57.892Z,21.87
2019-05-15T08:28:28.709Z,21.63
2019-05-15T08:30:58.381Z,21.53
2019-05-15T08:33:28.076Z,21.28
2019-05-15T08:35:58.883Z,21.08
2019-05-15T08:38:28.744Z,20.36
2019-05-15T08:40:59.253Z,20.24
2019-05-15T08:43:30.899Z,20.53
2019-05-15T08:45:58.836Z,20.91
2019-05-15T08:48:27.837Z,21.05
2019-05-15T08:50:57.906Z,21.06
2019-05-15T08:53:28.435Z,20.30
2019-05-15T08:55:58.823Z,20.09
2019-05-15T08:58:29.108Z,20.38
2019-05-15T09:00:58.896Z,20.77
2019-05-15T09:03:28.635Z,20.46
2019-05-15T09:05:59.053Z,20.77
2019-05-15T09:10:58.700Z,21.50
2019-05-15T09:13:29.200Z,21.33
2019-05-15T09:15:58.894Z,21.47
2019-05-15T09:18:28.328Z,21.04
2019-05-15T09:20:59.337Z,20.88
2019-05-15T09:23:29.024Z,21.25
2019-05-15T09:25:58.052Z,22.08
2019-05-15T09:28:29.275Z,22.37
2019-05-15T09:30:59.037Z,22.11
2019-05-15T09:33:28.578Z,21.47
2019-05-15T09:35:58.322Z,21.80
2019-05-15T09:38:29.010Z,21.90
2019-05-15T09:40:58.581Z,22.51
2019-05-15T09:43:28.529Z,23.02
2019-05-15T09:45:58.298Z,22.16
2019-05-15T09:48:28.716Z,21.61
2019-05-15T09:50:58.688Z,21.46
2019-05-15T09:53:28.539Z,21.84
2019-05-15T09:55:59.877Z,22.05
2019-05-15T09:58:30.283Z,21.64
2019-05-15T10:00:58.536Z,22.49
2019-05-15T10:03:28.239Z,22.63
2019-05-15T10:05:57.258Z,21.75
2019-05-15T10:08:29.045Z,21.35
2019-05-15T10:10:56.438Z,21.15
2019-05-15T10:13:25.159Z,21.45
2019-05-15T10:15:53.866Z,21.91
2019-05-15T10:18:22.588Z,21.92
2019-05-15T10:20:51.307Z,21.84
2019-05-15T10:23:20.179Z,22.25
2019-05-15T10:25:48.881Z,21.98
2019-05-15T10:28:19.106Z,21.71
2019-05-15T10:30:49.659Z,21.85
2019-05-15T10:33:19.608Z,22.86
2019-05-15T10:35:49.250Z,23.61
2019-05-15T10:38:19.419Z,23.68
2019-05-15T10:41:00.061Z,22.82
2019-05-15T10:43:20.533Z,22.47
2019-05-15T10:45:50.212Z,22.37
2019-05-15T10:48:19.451Z,22.21
2019-05-15T10:50:48.259Z,22.29
2019-05-15T10:53:19.044Z,22.79
2019-05-15T10:55:49.458Z,22.43
2019-05-15T10:58:22.014Z,22.32
2019-05-15T11:00:49.640Z,22.71
2019-05-15T11:03:20.033Z,23.35
2019-05-15T11:05:49.276Z,23.77
2019-05-15T11:08:18.869Z,23.84
2019-05-15T11:10:49.522Z,24.05
2019-05-15T11:13:19.116Z,24.73
2019-05-15T11:15:49.343Z,24.72
2019-05-15T11:18:18.375Z,24.22
2019-05-15T11:20:48.682Z,24.66
2019-05-15T11:23:19.958Z,24.95
2019-05-15T11:25:48.715Z,25.04
2019-05-15T11:28:17.751Z,25.08
2019-05-15T11:30:49.017Z,24.96
2019-05-15T11:33:18.842Z,25.23
2019-05-15T11:35:58.068Z,25.70
2019-05-15T11:38:19.456Z,25.70
2019-05-15T11:40:48.537Z,25.27
2019-05-15T11:43:19.699Z,24.79
2019-05-15T11:45:48.214Z,24.47
2019-05-15T11:48:20.207Z,24.31
2019-05-15T11:50:47.737Z,24.18
2019-05-15T11:53:18.981Z,24.22
2019-05-15T11:55:48.047Z,24.42
2019-05-15T11:58:18.931Z,24.72
2019-05-15T12:00:49.016Z,24.91
2019-05-15T12:03:19.071Z,24.98
2019-05-15T12:05:47.958Z,25.10
2019-05-15T12:08:18.568Z,25.34
2019-05-15T12:10:47.161Z,25.14
2019-05-15T12:13:15.874Z,24.71
2019-05-15T12:15:44.594Z,24.86
2019-05-15T12:18:13.379Z,23.58
2019-05-15T12:20:42.084Z,23.69
2019-05-15T12:23:10.828Z,23.97
2019-05-15T12:25:39.892Z,23.12
2019-05-15T12:28:09.602Z,23.61
2019-05-15T12:33:09.969Z,24.14
2019-05-15T12:35:40.069Z,24.22
2019-05-15T12:38:10.340Z,23.77
2019-05-15T13:00:43.103Z,25.94
2019-05-15T13:03:11.820Z,26.22
2019-05-15T13:05:40.542Z,26.39
2019-05-15T13:08:09.259Z,26.62
2019-05-15T13:10:38.710Z,26.65
2019-05-15T13:13:09.375Z,26.96
2019-05-15T13:15:41.147Z,26.99
2019-05-15T13:18:13.815Z,26.90
2019-05-15T13:20:39.045Z,26.61
2019-05-15T13:23:09.237Z,26.25
2019-05-15T13:25:39.570Z,26.04
2019-05-15T13:28:09.126Z,24.77
2019-05-15T13:30:41.242Z,23.94
2019-05-15T13:33:09.775Z,24.20
2019-05-15T13:35:38.992Z,24.62
2019-05-15T13:38:09.960Z,24.98
2019-05-15T13:40:42.109Z,25.22
2019-05-15T13:43:08.777Z,24.73
2019-05-15T13:45:38.778Z,24.94
2019-05-15T13:48:09.019Z,24.92
2019-05-15T13:50:40.397Z,25.22
2019-05-15T13:53:10.549Z,24.81
2019-05-15T13:55:42.427Z,24.45
2019-05-15T13:58:09.348Z,25.29
2019-05-15T14:00:39.032Z,25.56
2019-05-15T14:03:09.255Z,25.75
2019-05-15T14:05:38.805Z,25.80
2019-05-15T14:08:07.803Z,25.20
2019-05-15T14:10:38.632Z,25.08
2019-05-15T14:13:07.289Z,25.02
2019-05-15T14:15:38.249Z,25.23
2019-05-15T14:18:08.578Z,25.49
2019-05-15T14:20:38.675Z,25.48
2019-05-15T14:23:08.664Z,25.56
2019-05-15T14:25:38.878Z,25.95
2019-05-15T14:28:08.892Z,26.33
2019-05-15T14:30:38.040Z,26.23
2019-05-15T14:33:08.510Z,26.23
2019-05-15T14:35:37.916Z,25.45
2019-05-15T14:38:10.172Z,24.85
2019-05-15T14:40:37.391Z,24.35
2019-05-15T14:43:08.710Z,24.13
2019-05-15T14:45:38.593Z,23.96
2019-05-15T14:48:08.907Z,24.06
2019-05-15T14:50:38.427Z,23.74
2019-05-15T14:53:09.644Z,23.22
2019-05-15T14:55:43.948Z,22.83
2019-05-15T14:58:08.636Z,22.51
2019-05-15T15:00:41.093Z,22.29
2019-05-15T15:03:09.716Z,22.07
2019-05-15T15:05:38.774Z,22.01
2019-05-15T15:08:20.336Z,22.03
2019-05-15T15:10:38.739Z,21.89
2019-05-15T15:13:09.485Z,21.80
2019-05-15T15:15:38.177Z,21.83
2019-05-15T15:18:08.330Z,21.79
2019-05-15T15:20:38.126Z,21.82
2019-05-15T15:23:08.529Z,21.81
2019-05-15T15:25:39.751Z,21.81
2019-05-15T15:28:08.633Z,21.90
2019-05-15T15:30:38.406Z,21.99
2019-05-15T15:33:08.559Z,21.95
2019-05-15T15:35:38.301Z,21.67
2019-05-15T15:38:12.726Z,21.71
2019-05-15T15:40:38.901Z,21.84
2019-05-15T15:43:09.386Z,21.95
2019-05-15T15:45:39.275Z,21.93
2019-05-15T15:48:08.593Z,21.79
2019-05-15T15:50:38.343Z,21.86
2019-05-15T15:53:08.790Z,21.43
2019-05-15T15:55:38.576Z,21.17
2019-05-15T15:58:08.814Z,20.71
2019-05-15T16:00:38.724Z,20.55
2019-05-15T16:03:08.426Z,20.29
2019-05-15T16:05:38.446Z,19.77
2019-05-15T16:08:08.461Z,19.31
2019-05-15T16:10:38.025Z,19.49
2019-05-15T16:13:09.198Z,19.67
2019-05-15T16:15:38.513Z,18.85
2019-05-15T16:18:08.914Z,18.77
2019-05-15T16:20:39.541Z,18.64
2019-05-15T16:23:08.716Z,17.87
2019-05-15T16:25:38.446Z,17.72
2019-05-15T16:28:08.799Z,17.96
2019-05-15T16:30:50.240Z,18.05
2019-05-15T16:33:09.496Z,18.00
2019-05-15T16:35:38.803Z,18.27
2019-05-15T16:38:09.324Z,18.36
2019-05-15T16:40:39.275Z,18.52
2019-05-15T16:43:08.047Z,18.54
2019-05-15T16:45:38.836Z,18.59
2019-05-15T16:48:09.432Z,18.55
2019-05-15T16:50:38.248Z,18.75
2019-05-15T16:53:09.237Z,18.86
2019-05-15T16:55:37.920Z,18.86
2019-05-15T16:58:09.188Z,19.00
2019-05-15T17:00:38.480Z,19.12
2019-05-15T17:03:14.420Z,19.29
2019-05-15T17:05:38.698Z,19.36
2019-05-15T17:08:09.167Z,19.45
2019-05-15T17:10:38.797Z,19.46
2019-05-15T17:13:08.693Z,19.41
2019-05-15T17:15:38.561Z,19.49
2019-05-15T17:18:08.918Z,19.45
2019-05-15T17:20:38.101Z,19.48
2019-05-15T17:23:08.625Z,19.44
2019-05-15T17:25:38.175Z,19.27
2019-05-15T17:28:09.208Z,19.19
2019-05-15T17:30:38.299Z,19.13
2019-05-15T17:33:07.211Z,19.02
2019-05-15T17:35:38.035Z,19.00
2019-05-15T17:38:06.378Z,18.95
2019-05-15T17:40:37.444Z,18.97
2019-05-15T17:43:06.046Z,18.92
2019-05-15T17:45:35.568Z,18.84
2019-05-15T17:48:04.417Z,18.70
2019-05-15T17:50:45.116Z,18.60
2019-05-15T17:53:03.629Z,18.41
2019-05-15T17:55:32.338Z,18.19
2019-05-15T17:58:01.292Z,18.06
2019-05-15T18:00:30.546Z,18.04
2019-05-15T18:02:59.258Z,18.10
2019-05-15T18:05:28.435Z,18.08
2019-05-15T18:07:58.327Z,18.14
2019-05-15T18:10:27.923Z,18.02
2019-05-15T18:12:58.402Z,17.97
2019-05-15T18:15:27.311Z,17.96
2019-05-15T18:17:58.975Z,17.85
2019-05-15T18:20:29.570Z,17.70
2019-05-15T18:22:59.139Z,17.74
2019-05-15T18:25:28.210Z,17.81
2019-05-15T18:27:59.248Z,17.74
2019-05-15T18:30:28.158Z,17.72
2019-05-15T18:32:58.871Z,17.66
2019-05-15T18:35:29.486Z,17.58
2019-05-15T18:37:59.081Z,17.55
2019-05-15T18:40:28.286Z,17.53
2019-05-15T18:42:59.298Z,17.53
2019-05-15T18:45:28.953Z,17.51
2019-05-15T18:47:58.875Z,17.51
2019-05-15T18:50:28.365Z,17.46
2019-05-15T18:52:58.435Z,17.40
2019-05-15T18:55:27.434Z,17.28
2019-05-15T18:57:58.317Z,17.27
2019-05-15T19:00:29.491Z,17.40
2019-05-15T19:02:59.408Z,17.42
2019-05-15T19:05:28.212Z,17.46
2019-05-15T19:07:58.004Z,17.44
2019-05-15T19:10:28.236Z,17.33
2019-05-15T19:12:58.220Z,17.37
2019-05-15T19:15:28.759Z,17.18
2019-05-15T19:17:58.606Z,17.07
2019-05-15T19:20:28.039Z,17.01
2019-05-15T19:22:58.981Z,16.79
2019-05-15T19:25:28.604Z,16.73
2019-05-15T19:27:57.574Z,16.74
2019-05-15T19:30:28.628Z,16.61
2019-05-15T19:32:58.580Z,16.66
2019-05-15T19:35:28.057Z,16.62
2019-05-15T19:37:58.537Z,16.61
2019-05-15T19:40:28.378Z,16.69
2019-05-15T19:42:58.972Z,16.66
2019-05-15T19:45:28.354Z,16.72
2019-05-15T19:47:58.657Z,16.77
2019-05-15T19:50:28.751Z,16.72
2019-05-15T19:52:59.026Z,16.79
2019-05-15T19:55:28.142Z,16.82
2019-05-15T19:57:58.825Z,16.86
2019-05-15T20:00:28.539Z,16.86
2019-05-15T20:02:58.224Z,16.84
2019-05-15T20:05:28.988Z,16.91
2019-05-15T20:07:58.829Z,16.93
2019-05-15T20:10:29.305Z,17.03
2019-05-15T20:12:59.722Z,17.07
2019-05-15T20:15:28.876Z,17.20
2019-05-15T20:17:57.859Z,17.23
2019-05-15T20:20:28.332Z,17.08
2019-05-15T20:22:59.967Z,16.97
2019-05-15T20:25:27.977Z,16.79
2019-05-15T20:27:56.766Z,16.60
2019-05-15T20:30:25.721Z,16.73
2019-05-15T20:32:54.429Z,16.66
2019-05-15T20:35:23.134Z,16.73
2019-05-15T20:37:52.136Z,16.84
2019-05-15T20:40:20.847Z,16.79
2019-05-15T20:42:49.595Z,16.71
2019-05-15T20:45:18.754Z,16.65
2019-05-15T20:47:47.888Z,16.52
2019-05-15T20:50:19.401Z,16.52
2019-05-15T20:52:48.889Z,16.48
2019-05-15T20:55:18.173Z,16.49
2019-05-15T20:57:50.007Z,16.50
2019-05-15T21:00:19.319Z,16.41
2019-05-15T21:02:48.574Z,16.36
2019-05-15T21:05:18.565Z,16.41
2019-05-15T21:07:48.619Z,16.33
2019-05-15T21:10:21.452Z,16.40
2019-05-15T21:12:48.973Z,16.39
2019-05-15T21:15:21.533Z,16.48
2019-05-15T21:17:57.650Z,16.55
2019-05-15T21:20:19.464Z,16.55
2019-05-15T21:22:49.307Z,16.54
2019-05-15T21:25:19.789Z,16.59
2019-05-15T21:27:49.190Z,16.62
2019-05-15T21:30:19.455Z,16.66
2019-05-15T21:32:49.462Z,16.69
2019-05-15T21:35:18.619Z,16.77
2019-05-15T21:37:48.887Z,16.70
2019-05-15T21:40:17.818Z,16.75
2019-05-15T21:42:49.128Z,16.74
2019-05-15T21:45:18.564Z,16.58
2019-05-15T21:47:47.373Z,16.60
2019-05-15T21:50:19.002Z,16.55
2019-05-15T21:52:49.339Z,16.57
2019-05-15T21:55:18.613Z,16.57
2019-05-15T21:57:47.802Z,16.58
2019-05-15T22:00:22.355Z,16.59
2019-05-15T22:02:51.168Z,16.50
2019-05-15T22:05:19.878Z,16.51
2019-05-15T22:07:51.266Z,16.52
2019-05-15T22:10:19.640Z,16.53
2019-05-15T22:12:48.513Z,16.52
2019-05-15T22:15:19.033Z,16.50
2019-05-15T22:17:49.565Z,16.49
2019-05-15T22:20:19.120Z,16.53
2019-05-15T22:22:50.339Z,16.47
2019-05-15T22:25:19.190Z,16.56
2019-05-15T22:27:49.191Z,16.62
2019-05-15T22:30:19.174Z,16.61
2019-05-15T22:32:49.483Z,16.63
2019-05-15T22:35:18.931Z,16.65
2019-05-15T22:37:49.385Z,16.63
2019-05-15T22:40:19.412Z,16.65
2019-05-15T22:42:48.763Z,16.61
2019-05-15T22:45:18.536Z,16.65
2019-05-15T22:47:48.307Z,16.65
2019-05-15T22:50:19.079Z,16.65
2019-05-15T22:52:49.255Z,16.67
2019-05-15T22:55:18.591Z,16.67
2019-05-15T22:57:48.191Z,16.50
2019-05-15T23:00:17.850Z,16.53
2019-05-15T23:02:48.873Z,16.49
2019-05-15T23:05:25.081Z,16.45
2019-05-15T23:07:48.258Z,16.50
2019-05-15T23:10:17.743Z,16.59
2019-05-15T23:12:48.515Z,16.66
2019-05-15T23:15:18.869Z,16.65
2019-05-15T23:17:48.697Z,16.63
2019-05-15T23:20:17.959Z,16.66
2019-05-15T23:22:46.683Z,16.65
2019-05-15T23:25:15.390Z,16.66
2019-05-15T23:27:44.154Z,16.64
2019-05-15T23:30:13.061Z,16.61
2019-05-15T23:32:41.778Z,16.59
2019-05-15T23:35:10.591Z,16.60
2019-05-15T23:37:39.469Z,16.61
2019-05-15T23:40:09.017Z,16.59
2019-05-15T23:42:39.227Z,16.56
2019-05-15T23:45:09.518Z,16.37
2019-05-15T23:47:38.594Z,16.47
2019-05-15T23:50:07.829Z,16.45
2019-05-15T23:52:38.509Z,16.48
2019-05-15T23:55:10.449Z,16.41
2019-05-15T23:57:39.503Z,16.42
